sensor_id;sensor_type;location;lat;lon;timestamp;pressure;altitude;pressure_sealevel;temperature;humidity
58367;BME280;57745;42.524;12.052;2023-10-08T00:01:43;97202.59;;;25.47;44.02
58367;BME280;57745;42.524;12.052;2023-10-08T00:04:09;97197.00;;;25.52;44.00
58367;BME280;57745;42.524;12.052;2023-10-08T00:06:44;97203.31;;;25.53;43.97
58367;BME280;57745;42.524;12.052;2023-10-08T00:09:10;97191.50;;;25.47;44.25
58367;BME280;57745;42.524;12.052;2023-10-08T00:11:37;97195.00;;;25.58;43.99
58367;BME280;57745;42.524;12.052;2023-10-08T00:14:04;97197.53;;;25.51;44.03
58367;BME280;57745;42.524;12.052;2023-10-08T00:16:33;97188.94;;;25.49;44.37
58367;BME280;57745;42.524;12.052;2023-10-08T00:18:59;97183.41;;;25.43;44.48
58367;BME280;57745;42.524;12.052;2023-10-08T00:21:32;97185.94;;;25.47;44.42
58367;BME280;57745;42.524;12.052;2023-10-08T00:24:00;97185.94;;;25.30;44.67
58367;BME280;57745;42.524;12.052;2023-10-08T00:26:26;97190.69;;;25.52;44.45
58367;BME280;57745;42.524;12.052;2023-10-08T00:29:03;97185.41;;;25.37;45.13
58367;BME280;57745;42.524;12.052;2023-10-08T00:31:32;97187.41;;;25.64;43.88
58367;BME280;57745;42.524;12.052;2023-10-08T00:34:06;97180.88;;;25.45;44.84
58367;BME280;57745;42.524;12.052;2023-10-08T00:36:34;97177.84;;;25.37;44.97
58367;BME280;57745;42.524;12.052;2023-10-08T00:38:59;97175.84;;;25.44;44.44
58367;BME280;57745;42.524;12.052;2023-10-08T00:41:28;97177.09;;;25.42;44.41
58367;BME280;57745;42.524;12.052;2023-10-08T00:43:56;97174.81;;;25.47;44.23
58367;BME280;57745;42.524;12.052;2023-10-08T00:46:24;97172.06;;;25.24;45.38
58367;BME280;57745;42.524;12.052;2023-10-08T00:48:55;97169.53;;;25.26;45.21
58367;BME280;57745;42.524;12.052;2023-10-08T00:51:22;97161.66;;;25.47;44.78
58367;BME280;57745;42.524;12.052;2023-10-08T00:54:03;97158.69;;;25.34;44.99
58367;BME280;57745;42.524;12.052;2023-10-08T00:56:34;97156.88;;;25.48;44.90
58367;BME280;57745;42.524;12.052;2023-10-08T00:59:19;97166.25;;;25.45;44.50
58367;BME280;57745;42.524;12.052;2023-10-08T01:01:48;97157.41;;;25.40;44.66
58367;BME280;57745;42.524;12.052;2023-10-08T01:04:25;97154.66;;;25.24;45.08
58367;BME280;57745;42.524;12.052;2023-10-08T01:07:00;97155.63;;;25.43;44.36
58367;BME280;57745;42.524;12.052;2023-10-08T01:09:38;97161.94;;;25.44;44.74
58367;BME280;57745;42.524;12.052;2023-10-08T01:12:13;97154.63;;;25.40;44.99
58367;BME280;57745;42.524;12.052;2023-10-08T01:14:49;97157.13;;;25.50;44.20
58367;BME280;57745;42.524;12.052;2023-10-08T01:17:21;97159.94;;;25.27;44.81
58367;BME280;57745;42.524;12.052;2023-10-08T01:19:50;97148.06;;;25.44;44.05
58367;BME280;57745;42.524;12.052;2023-10-08T01:22:25;97151.34;;;25.36;44.75
58367;BME280;57745;42.524;12.052;2023-10-08T01:24:54;97152.84;;;25.37;44.39
58367;BME280;57745;42.524;12.052;2023-10-08T01:27:19;97150.84;;;25.44;44.32
58367;BME280;57745;42.524;12.052;2023-10-08T01:29:51;97150.59;;;25.25;44.74
58367;BME280;57745;42.524;12.052;2023-10-08T01:32:20;97145.78;;;25.36;44.56
58367;BME280;57745;42.524;12.052;2023-10-08T01:34:47;97157.91;;;25.39;44.15
58367;BME280;57745;42.524;12.052;2023-10-08T01:37:18;97150.88;;;25.32;44.48
58367;BME280;57745;42.524;12.052;2023-10-08T01:39:47;97146.78;;;25.50;44.01
58367;BME280;57745;42.524;12.052;2023-10-08T01:42:15;97146.78;;;25.50;43.94
58367;BME280;57745;42.524;12.052;2023-10-08T01:44:46;97160.19;;;25.46;44.00
58367;BME280;57745;42.524;12.052;2023-10-08T01:47:13;97144.53;;;25.37;44.19
58367;BME280;57745;42.524;12.052;2023-10-08T01:49:39;97147.84;;;25.30;44.35
58367;BME280;57745;42.524;12.052;2023-10-08T01:52:06;97147.84;;;25.19;44.33
58367;BME280;57745;42.524;12.052;2023-10-08T01:54:39;97150.34;;;25.39;44.17
58367;BME280;57745;42.524;12.052;2023-10-08T01:57:05;97133.94;;;25.41;44.06
58367;BME280;57745;42.524;12.052;2023-10-08T01:59:33;97140.75;;;25.40;43.81
58367;BME280;57745;42.524;12.052;2023-10-08T02:01:59;97132.41;;;25.40;43.62
58367;BME280;57745;42.524;12.052;2023-10-08T02:04:24;97138.69;;;25.52;43.29
58367;BME280;57745;42.524;12.052;2023-10-08T02:06:50;97138.00;;;25.29;43.96
58367;BME280;57745;42.524;12.052;2023-10-08T02:09:16;97144.28;;;25.35;43.95
58367;BME280;57745;42.524;12.052;2023-10-08T02:11:48;97140.47;;;25.50;43.42
58367;BME280;57745;42.524;12.052;2023-10-08T02:14:19;97141.75;;;25.43;43.50
58367;BME280;57745;42.524;12.052;2023-10-08T02:16:49;97144.53;;;25.37;43.47
58367;BME280;57745;42.524;12.052;2023-10-08T02:19:15;97144.31;;;25.30;43.70
58367;BME280;57745;42.524;12.052;2023-10-08T02:21:44;97137.72;;;25.38;43.76
58367;BME280;57745;42.524;12.052;2023-10-08T02:24:12;97135.47;;;25.31;43.90
58367;BME280;57745;42.524;12.052;2023-10-08T02:26:38;97140.50;;;25.38;43.52
58367;BME280;57745;42.524;12.052;2023-10-08T02:29:04;97141.75;;;25.43;43.52
58367;BME280;57745;42.524;12.052;2023-10-08T02:31:39;97133.97;;;25.25;44.13
58367;BME280;57745;42.524;12.052;2023-10-08T02:34:06;97130.41;;;25.24;43.84
58367;BME280;57745;42.524;12.052;2023-10-08T02:36:36;97135.25;;;25.18;43.88
58367;BME280;57745;42.524;12.052;2023-10-08T02:39:06;97131.97;;;25.20;43.97
58367;BME280;57745;42.524;12.052;2023-10-08T02:41:40;97128.69;;;25.21;44.07
58367;BME280;57745;42.524;12.052;2023-10-08T02:44:07;97119.06;;;25.22;43.99
58367;BME280;57745;42.524;12.052;2023-10-08T02:46:38;97133.16;;;25.35;43.70
58367;BME280;57745;42.524;12.052;2023-10-08T02:49:07;97126.16;;;25.18;43.82
58367;BME280;57745;42.524;12.052;2023-10-08T02:51:35;97131.19;;;25.30;43.73
58367;BME280;57745;42.524;12.052;2023-10-08T02:54:01;97126.66;;;25.16;44.05
58367;BME280;57745;42.524;12.052;2023-10-08T02:56:30;97125.63;;;25.25;43.63
58367;BME280;57745;42.524;12.052;2023-10-08T02:58:58;97128.41;;;25.30;43.52
58367;BME280;57745;42.524;12.052;2023-10-08T03:01:23;97120.56;;;25.23;43.94
58367;BME280;57745;42.524;12.052;2023-10-08T03:03:50;97122.09;;;25.24;44.13
58367;BME280;57745;42.524;12.052;2023-10-08T03:06:24;97126.69;;;25.05;44.28
58367;BME280;57745;42.524;12.052;2023-10-08T03:08:50;97122.63;;;25.12;44.16
58367;BME280;57745;42.524;12.052;2023-10-08T03:11:16;97114.28;;;25.28;43.66
58367;BME280;57745;42.524;12.052;2023-10-08T03:13:44;97124.34;;;25.42;43.45
58367;BME280;57745;42.524;12.052;2023-10-08T03:16:12;97118.56;;;25.29;43.59
58367;BME280;57745;42.524;12.052;2023-10-08T03:18:39;97125.66;;;25.19;43.96
58367;BME280;57745;42.524;12.052;2023-10-08T03:21:10;97124.88;;;25.30;43.79
58367;BME280;57745;42.524;12.052;2023-10-08T03:23:58;97114.00;;;25.37;43.22
58367;BME280;57745;42.524;12.052;2023-10-08T03:26:24;97110.94;;;25.47;42.89
58367;BME280;57745;42.524;12.052;2023-10-08T03:29:00;97111.00;;;25.19;43.43
58367;BME280;57745;42.524;12.052;2023-10-08T03:31:26;97111.78;;;25.14;43.29
58367;BME280;57745;42.524;12.052;2023-10-08T03:34:13;97106.94;;;25.25;43.05
58367;BME280;57745;42.524;12.052;2023-10-08T03:36:43;97111.25;;;25.26;42.56
58367;BME280;57745;42.524;12.052;2023-10-08T03:39:12;97116.09;;;25.09;43.01
58367;BME280;57745;42.524;12.052;2023-10-08T03:41:43;97112.78;;;25.22;42.31
58367;BME280;57745;42.524;12.052;2023-10-08T03:44:23;97108.72;;;25.34;42.06
58367;BME280;57745;42.524;12.052;2023-10-08T03:46:49;97113.50;;;25.22;42.57
58367;BME280;57745;42.524;12.052;2023-10-08T03:49:17;97110.75;;;25.17;42.67
58367;BME280;57745;42.524;12.052;2023-10-08T03:51:46;97117.56;;;25.27;42.10
58367;BME280;57745;42.524;12.052;2023-10-08T03:54:14;97114.00;;;25.26;41.94
58367;BME280;57745;42.524;12.052;2023-10-08T03:56:44;97122.06;;;25.35;41.91
58367;BME280;57745;42.524;12.052;2023-10-08T03:59:17;97119.34;;;25.19;41.97
58367;BME280;57745;42.524;12.052;2023-10-08T04:01:55;97111.50;;;25.28;41.90
58367;BME280;57745;42.524;12.052;2023-10-08T04:04:25;97120.34;;;25.21;41.91
58367;BME280;57745;42.524;12.052;2023-10-08T04:06:56;97111.75;;;25.30;41.72
58367;BME280;57745;42.524;12.052;2023-10-08T04:09:41;97120.56;;;25.29;41.89
58367;BME280;57745;42.524;12.052;2023-10-08T04:12:07;97121.34;;;25.24;41.82
58367;BME280;57745;42.524;12.052;2023-10-08T04:14:36;97120.09;;;25.19;42.05
58367;BME280;57745;42.524;12.052;2023-10-08T04:17:01;97121.84;;;25.28;41.61
58367;BME280;57745;42.524;12.052;2023-10-08T04:19:27;97128.94;;;25.12;42.24
58367;BME280;57745;42.524;12.052;2023-10-08T04:21:53;97129.19;;;25.14;42.01
58367;BME280;57745;42.524;12.052;2023-10-08T04:24:23;97122.13;;;25.19;41.89
58367;BME280;57745;42.524;12.052;2023-10-08T04:27:09;97127.66;;;25.13;41.93
58367;BME280;57745;42.524;12.052;2023-10-08T04:29:35;97127.66;;;25.24;41.68
58367;BME280;57745;42.524;12.052;2023-10-08T04:32:04;97126.16;;;25.12;42.00
58367;BME280;57745;42.524;12.052;2023-10-08T04:34:36;97129.69;;;25.13;42.16
58367;BME280;57745;42.524;12.052;2023-10-08T04:37:01;97134.22;;;25.10;42.39
58367;BME280;57745;42.524;12.052;2023-10-08T04:39:29;97132.47;;;25.07;42.27
58367;BME280;57745;42.524;12.052;2023-10-08T04:42:00;97139.25;;;25.28;41.78
58367;BME280;57745;42.524;12.052;2023-10-08T04:44:39;97143.53;;;25.29;42.12
58367;BME280;57745;42.524;12.052;2023-10-08T04:47:08;97127.66;;;25.24;41.96
58367;BME280;57745;42.524;12.052;2023-10-08T04:49:35;97133.69;;;25.23;42.31
58367;BME280;57745;42.524;12.052;2023-10-08T04:52:07;97140.03;;;25.18;42.21
58367;BME280;57745;42.524;12.052;2023-10-08T04:54:45;97135.50;;;25.20;42.34
58367;BME280;57745;42.524;12.052;2023-10-08T04:57:30;97144.56;;;25.26;42.22
58367;BME280;57745;42.524;12.052;2023-10-08T04:59:56;97139.75;;;25.32;42.06
58367;BME280;57745;42.524;12.052;2023-10-08T05:02:22;97131.97;;;25.14;42.23
58367;BME280;57745;42.524;12.052;2023-10-08T05:05:14;97134.47;;;25.12;42.33
58367;BME280;57745;42.524;12.052;2023-10-08T05:07:42;97141.78;;;25.15;42.39
58367;BME280;57745;42.524;12.052;2023-10-08T05:10:12;97141.56;;;25.02;42.68
58367;BME280;57745;42.524;12.052;2023-10-08T05:12:50;97140.81;;;25.07;42.56
58367;BME280;57745;42.524;12.052;2023-10-08T05:15:36;97135.28;;;24.96;42.85
58367;BME280;57745;42.524;12.052;2023-10-08T05:18:07;97138.78;;;25.02;42.59
58367;BME280;57745;42.524;12.052;2023-10-08T05:20:48;97148.38;;;24.95;42.71
58367;BME280;57745;42.524;12.052;2023-10-08T05:23:15;97139.78;;;25.10;42.45
58367;BME280;57745;42.524;12.052;2023-10-08T05:26:03;97146.34;;;25.18;42.46
58367;BME280;57745;42.524;12.052;2023-10-08T05:28:36;97148.34;;;25.18;42.51
58367;BME280;57745;42.524;12.052;2023-10-08T05:31:12;97144.59;;;25.10;43.00
58367;BME280;57745;42.524;12.052;2023-10-08T05:33:43;97142.03;;;25.23;42.54
58367;BME280;57745;42.524;12.052;2023-10-08T05:36:27;97145.59;;;25.07;42.83
58367;BME280;57745;42.524;12.052;2023-10-08T05:39:02;97146.56;;;25.26;42.49
58367;BME280;57745;42.524;12.052;2023-10-08T05:41:44;97155.19;;;25.17;42.96
58367;BME280;57745;42.524;12.052;2023-10-08T05:44:28;97148.34;;;25.12;43.01
58367;BME280;57745;42.524;12.052;2023-10-08T05:47:04;97154.94;;;25.09;43.31
58367;BME280;57745;42.524;12.052;2023-10-08T05:49:50;97165.78;;;25.07;42.87
58367;BME280;57745;42.524;12.052;2023-10-08T05:52:48;97160.22;;;25.18;42.68
58367;BME280;57745;42.524;12.052;2023-10-08T05:55:33;97172.06;;;25.13;42.74
58367;BME280;57745;42.524;12.052;2023-10-08T05:58:06;97172.31;;;24.98;42.81
58367;BME280;57745;42.524;12.052;2023-10-08T06:00:46;97177.16;;;25.09;42.82
58367;BME280;57745;42.524;12.052;2023-10-08T06:03:26;97179.16;;;25.14;42.62
58367;BME280;57745;42.524;12.052;2023-10-08T06:06:05;97186.97;;;25.10;42.74
58367;BME280;57745;42.524;12.052;2023-10-08T06:08:40;97190.50;;;25.11;42.66
58367;BME280;57745;42.524;12.052;2023-10-08T06:11:25;97193.53;;;25.07;42.81
58367;BME280;57745;42.524;12.052;2023-10-08T06:14:06;97199.59;;;25.17;42.67
58367;BME280;57745;42.524;12.052;2023-10-08T06:17:01;97200.09;;;25.15;42.96
58367;BME280;57745;42.524;12.052;2023-10-08T06:19:39;97201.09;;;25.12;42.98
58367;BME280;57745;42.524;12.052;2023-10-08T06:22:05;97203.88;;;25.01;43.28
58367;BME280;57745;42.524;12.052;2023-10-08T06:24:30;97200.84;;;25.21;42.88
58367;BME280;57745;42.524;12.052;2023-10-08T06:26:58;97206.91;;;25.31;43.09
58367;BME280;57745;42.524;12.052;2023-10-08T06:29:30;97207.91;;;25.11;43.71
58367;BME280;57745;42.524;12.052;2023-10-08T06:31:57;97202.88;;;25.21;43.39
58367;BME280;57745;42.524;12.052;2023-10-08T06:34:30;97205.13;;;25.17;43.64
58367;BME280;57745;42.524;12.052;2023-10-08T06:36:58;97209.94;;;25.16;43.66
58367;BME280;57745;42.524;12.052;2023-10-08T06:39:24;97214.97;;;25.34;43.23
58367;BME280;57745;42.524;12.052;2023-10-08T06:42:13;97211.94;;;25.44;43.08
58367;BME280;57745;42.524;12.052;2023-10-08T06:44:39;97213.44;;;25.22;43.62
58367;BME280;57745;42.524;12.052;2023-10-08T06:47:07;97214.47;;;25.41;43.54
58367;BME280;57745;42.524;12.052;2023-10-08T06:49:35;97209.44;;;25.34;43.94
58367;BME280;57745;42.524;12.052;2023-10-08T06:52:01;97217.00;;;25.28;43.79
58367;BME280;57745;42.524;12.052;2023-10-08T06:54:27;97214.19;;;25.39;43.66
58367;BME280;57745;42.524;12.052;2023-10-08T06:56:56;97217.97;;;25.36;43.85
58367;BME280;57745;42.524;12.052;2023-10-08T06:59:21;97207.91;;;25.45;43.75
58367;BME280;57745;42.524;12.052;2023-10-08T07:01:48;97207.63;;;25.42;43.58
58367;BME280;57745;42.524;12.052;2023-10-08T07:04:17;97215.72;;;25.40;43.75
58367;BME280;57745;42.524;12.052;2023-10-08T07:06:44;97215.47;;;25.44;43.63
58367;BME280;57745;42.524;12.052;2023-10-08T07:09:12;97210.94;;;25.47;43.24
58367;BME280;57745;42.524;12.052;2023-10-08T07:11:54;97215.72;;;25.46;43.37
58367;BME280;57745;42.524;12.052;2023-10-08T07:14:23;97218.47;;;25.52;43.42
58367;BME280;57745;42.524;12.052;2023-10-08T07:16:57;97222.56;;;25.34;43.61
58367;BME280;57745;42.524;12.052;2023-10-08T07:19:29;97224.03;;;25.52;43.23
58367;BME280;57745;42.524;12.052;2023-10-08T07:22:02;97238.19;;;25.42;43.52
58367;BME280;57745;42.524;12.052;2023-10-08T07:24:43;97231.88;;;25.31;44.43
58367;BME280;57745;42.524;12.052;2023-10-08T07:27:10;97232.38;;;25.29;45.33
58367;BME280;57745;42.524;12.052;2023-10-08T07:29:37;97227.34;;;25.33;44.72
58367;BME280;57745;42.524;12.052;2023-10-08T07:32:02;97231.63;;;25.46;44.70
58367;BME280;57745;42.524;12.052;2023-10-08T07:34:36;97234.66;;;25.42;45.10
58367;BME280;57745;42.524;12.052;2023-10-08T07:37:02;97231.88;;;25.42;45.39
58367;BME280;57745;42.524;12.052;2023-10-08T07:39:27;97236.66;;;25.53;45.92
58367;BME280;57745;42.524;12.052;2023-10-08T07:42:04;97238.69;;;25.41;46.08
58367;BME280;57745;42.524;12.052;2023-10-08T07:44:34;97234.16;;;25.27;46.73
58367;BME280;57745;42.524;12.052;2023-10-08T07:47:04;97240.22;;;25.25;46.77
58367;BME280;57745;42.524;12.052;2023-10-08T07:49:31;97235.91;;;25.41;46.56
58367;BME280;57745;42.524;12.052;2023-10-08T07:51:57;97233.66;;;25.34;46.85
58367;BME280;57745;42.524;12.052;2023-10-08T07:54:25;97240.19;;;25.48;46.07
58367;BME280;57745;42.524;12.052;2023-10-08T07:56:55;97235.91;;;25.41;46.80
58367;BME280;57745;42.524;12.052;2023-10-08T07:59:34;97230.59;;;25.37;46.79
58367;BME280;57745;42.524;12.052;2023-10-08T08:02:05;97227.56;;;25.35;47.02
58367;BME280;57745;42.524;12.052;2023-10-08T08:04:36;97232.09;;;25.50;46.41
58367;BME280;57745;42.524;12.052;2023-10-08T08:07:01;97227.06;;;25.42;47.08
58367;BME280;57745;42.524;12.052;2023-10-08T08:09:29;97231.38;;;25.38;46.96
58367;BME280;57745;42.524;12.052;2023-10-08T08:11:55;97233.13;;;25.41;47.43
58367;BME280;57745;42.524;12.052;2023-10-08T08:14:23;97229.59;;;25.40;47.53
58367;BME280;57745;42.524;12.052;2023-10-08T08:16:50;97218.00;;;25.42;47.58
58367;BME280;57745;42.524;12.052;2023-10-08T08:19:17;97227.31;;;25.61;46.91
58367;BME280;57745;42.524;12.052;2023-10-08T08:21:43;97211.66;;;25.64;46.57
58367;BME280;57745;42.524;12.052;2023-10-08T08:24:13;97216.94;;;25.73;46.79
58367;BME280;57745;42.524;12.052;2023-10-08T08:26:39;97220.22;;;25.83;46.49
58367;BME280;57745;42.524;12.052;2023-10-08T08:29:06;97218.38;;;26.07;45.33
58367;BME280;57745;42.524;12.052;2023-10-08T08:31:35;97207.34;;;25.80;45.63
58367;BME280;57745;42.524;12.052;2023-10-08T08:34:02;97212.09;;;25.96;45.47
58367;BME280;57745;42.524;12.052;2023-10-08T08:36:33;97212.06;;;26.01;44.94
58367;BME280;57745;42.524;12.052;2023-10-08T08:38:59;97225.75;;;25.94;45.08
58367;BME280;57745;42.524;12.052;2023-10-08T08:41:24;97230.75;;;26.01;45.13
58367;BME280;57745;42.524;12.052;2023-10-08T08:43:54;97216.84;;;26.06;45.35
58367;BME280;57745;42.524;12.052;2023-10-08T08:46:32;97227.44;;;26.13;44.93
58367;BME280;57745;42.524;12.052;2023-10-08T08:49:03;97224.84;;;26.21;45.20
58367;BME280;57745;42.524;12.052;2023-10-08T08:51:29;97222.84;;;26.22;45.09
58367;BME280;57745;42.524;12.052;2023-10-08T08:53:55;97220.91;;;26.05;45.61
58367;BME280;57745;42.524;12.052;2023-10-08T08:56:21;97236.72;;;26.27;44.75
58367;BME280;57745;42.524;12.052;2023-10-08T08:58:49;97238.28;;;26.28;45.00
58367;BME280;57745;42.524;12.052;2023-10-08T09:01:16;97235.00;;;26.19;44.91
58367;BME280;57745;42.524;12.052;2023-10-08T09:03:43;97224.09;;;26.32;44.35
58367;BME280;57745;42.524;12.052;2023-10-08T09:06:08;97225.09;;;26.23;44.93
58367;BME280;57745;42.524;12.052;2023-10-08T09:08:37;97233.19;;;26.21;44.91
58367;BME280;57745;42.524;12.052;2023-10-08T09:11:06;97234.00;;;26.10;45.36
58367;BME280;57745;42.524;12.052;2023-10-08T09:13:34;97235.97;;;26.27;44.93
58367;BME280;57745;42.524;12.052;2023-10-08T09:16:20;97231.41;;;26.35;45.01
58367;BME280;57745;42.524;12.052;2023-10-08T09:18:48;97242.53;;;26.24;44.78
58367;BME280;57745;42.524;12.052;2023-10-08T09:21:16;97236.19;;;26.40;44.54
58367;BME280;57745;42.524;12.052;2023-10-08T09:23:49;97236.44;;;26.36;44.80
58367;BME280;57745;42.524;12.052;2023-10-08T09:26:22;97237.47;;;26.39;44.70
58367;BME280;57745;42.524;12.052;2023-10-08T09:28:48;97228.34;;;26.44;44.55
58367;BME280;57745;42.524;12.052;2023-10-08T09:31:14;97223.81;;;26.41;44.77
58367;BME280;57745;42.524;12.052;2023-10-08T09:33:40;97235.63;;;26.47;44.39
58367;BME280;57745;42.524;12.052;2023-10-08T09:36:07;97227.84;;;26.40;44.56
58367;BME280;57745;42.524;12.052;2023-10-08T09:38:36;97224.31;;;26.39;44.71
58367;BME280;57745;42.524;12.052;2023-10-08T09:41:03;97228.09;;;26.36;44.24
58367;BME280;57745;42.524;12.052;2023-10-08T09:43:31;97227.59;;;26.43;44.09
58367;BME280;57745;42.524;12.052;2023-10-08T09:48:37;97231.13;;;26.44;44.01
58367;BME280;57745;42.524;12.052;2023-10-08T09:51:05;97228.28;;;26.55;43.62
58367;BME280;57745;42.524;12.052;2023-10-08T09:53:55;97225.06;;;26.45;43.55
58367;BME280;57745;42.524;12.052;2023-10-08T09:56:28;97227.03;;;26.51;43.48
58367;BME280;57745;42.524;12.052;2023-10-08T09:58:54;97233.59;;;26.53;42.26
58367;BME280;57745;42.524;12.052;2023-10-08T10:01:20;97232.28;;;26.60;41.72
58367;BME280;57745;42.524;12.052;2023-10-08T10:03:48;97231.00;;;26.66;41.51
58367;BME280;57745;42.524;12.052;2023-10-08T10:06:15;97227.19;;;26.69;41.42
58367;BME280;57745;42.524;12.052;2023-10-08T10:08:43;97229.44;;;26.71;40.62
58367;BME280;57745;42.524;12.052;2023-10-08T10:11:09;97227.53;;;26.55;40.33
58367;BME280;57745;42.524;12.052;2023-10-08T10:13:50;97225.78;;;26.46;39.68
58367;BME280;57745;42.524;12.052;2023-10-08T10:16:20;97225.19;;;26.59;39.13
58367;BME280;57745;42.524;12.052;2023-10-08T10:18:48;97224.69;;;26.60;38.98
58367;BME280;57745;42.524;12.052;2023-10-08T10:23:47;97235.03;;;26.65;39.33
58367;BME280;57745;42.524;12.052;2023-10-08T10:31:32;97226.13;;;26.72;39.38
58367;BME280;57745;42.524;12.052;2023-10-08T10:34:05;97228.75;;;26.59;40.04
58367;BME280;57745;42.524;12.052;2023-10-08T10:36:30;97229.72;;;26.67;39.61
58367;BME280;57745;42.524;12.052;2023-10-08T10:38:57;97236.56;;;26.66;39.79
58367;BME280;57745;42.524;12.052;2023-10-08T10:41:22;97234.47;;;26.78;39.75
58367;BME280;57745;42.524;12.052;2023-10-08T10:43:47;97230.19;;;26.71;40.38
58367;BME280;57745;42.524;12.052;2023-10-08T10:46:18;97219.88;;;26.66;39.95
58367;BME280;57745;42.524;12.052;2023-10-08T10:48:58;97220.63;;;26.67;40.35
58367;BME280;57745;42.524;12.052;2023-10-08T10:51:50;97223.66;;;26.63;40.66
58367;BME280;57745;42.524;12.052;2023-10-08T10:54:29;97227.19;;;26.69;40.31
58367;BME280;57745;42.524;12.052;2023-10-08T10:57:02;97213.50;;;26.71;40.26
58367;BME280;57745;42.524;12.052;2023-10-08T10:59:43;97221.31;;;26.78;40.20
58367;BME280;57745;42.524;12.052;2023-10-08T11:02:18;97213.97;;;26.75;40.26
58367;BME280;57745;42.524;12.052;2023-10-08T11:04:56;97206.56;;;26.83;40.32
58367;BME280;57745;42.524;12.052;2023-10-08T11:07:33;97205.38;;;26.79;39.92
58367;BME280;57745;42.524;12.052;2023-10-08T11:10:00;97215.16;;;26.91;40.08
58367;BME280;57745;42.524;12.052;2023-10-08T11:12:25;97203.44;;;26.63;40.25
58367;BME280;57745;42.524;12.052;2023-10-08T11:15:11;97191.47;;;26.73;39.99
58367;BME280;57745;42.524;12.052;2023-10-08T11:17:41;97193.75;;;26.75;40.75
58367;BME280;57745;42.524;12.052;2023-10-08T11:20:25;97190.94;;;26.80;40.47
58367;BME280;57745;42.524;12.052;2023-10-08T11:22:51;97189.59;;;26.87;40.91
58367;BME280;57745;42.524;12.052;2023-10-08T11:25:24;97199.53;;;26.82;40.18
58367;BME280;57745;42.524;12.052;2023-10-08T11:27:56;97197.47;;;26.83;40.14
58367;BME280;57745;42.524;12.052;2023-10-08T11:30:28;97193.38;;;26.90;39.74
58367;BME280;57745;42.524;12.052;2023-10-08T11:32:59;97196.00;;;26.82;40.02
58367;BME280;57745;42.524;12.052;2023-10-08T11:35:25;97194.50;;;26.75;40.23
58367;BME280;57745;42.524;12.052;2023-10-08T11:37:58;97190.22;;;26.74;40.09
58367;BME280;57745;42.524;12.052;2023-10-08T11:40:26;97187.16;;;26.78;40.46
58367;BME280;57745;42.524;12.052;2023-10-08T11:43:12;97187.19;;;26.72;39.93
58367;BME280;57745;42.524;12.052;2023-10-08T11:45:42;97188.19;;;26.75;39.74
58367;BME280;57745;42.524;12.052;2023-10-08T11:48:16;97186.63;;;26.79;39.97
58367;BME280;57745;42.524;12.052;2023-10-08T11:50:54;97183.03;;;26.84;39.48
58367;BME280;57745;42.524;12.052;2023-10-08T11:53:23;97181.53;;;26.83;39.39
58367;BME280;57745;42.524;12.052;2023-10-08T11:55:50;97173.94;;;26.84;39.30
58367;BME280;57745;42.524;12.052;2023-10-08T11:58:19;97178.41;;;26.98;39.11
58367;BME280;57745;42.524;12.052;2023-10-08T12:00:45;97170.63;;;26.91;38.40
58367;BME280;57745;42.524;12.052;2023-10-08T12:03:15;97173.91;;;26.90;38.54
58367;BME280;57745;42.524;12.052;2023-10-08T12:05:44;97163.88;;;26.81;38.23
58367;BME280;57745;42.524;12.052;2023-10-08T12:08:18;97165.31;;;26.88;38.57
58367;BME280;57745;42.524;12.052;2023-10-08T12:10:46;97161.78;;;26.93;38.31
58367;BME280;57745;42.524;12.052;2023-10-08T12:13:13;97162.06;;;26.83;38.18
58367;BME280;57745;42.524;12.052;2023-10-08T12:15:41;97166.84;;;26.89;38.05
58367;BME280;57745;42.524;12.052;2023-10-08T12:18:10;97153.50;;;26.81;37.15
58367;BME280;57745;42.524;12.052;2023-10-08T12:20:41;97149.47;;;26.77;37.66
58367;BME280;57745;42.524;12.052;2023-10-08T12:23:11;97144.09;;;26.84;36.83
58367;BME280;57745;42.524;12.052;2023-10-08T12:25:44;97156.28;;;26.81;37.06
58367;BME280;57745;42.524;12.052;2023-10-08T12:28:19;97151.72;;;26.78;37.20
58367;BME280;57745;42.524;12.052;2023-10-08T12:30:45;97148.84;;;26.90;37.79
58367;BME280;57745;42.524;12.052;2023-10-08T12:33:11;97151.16;;;26.86;37.56
58367;BME280;57745;42.524;12.052;2023-10-08T12:35:44;97150.88;;;26.89;37.12
58367;BME280;57745;42.524;12.052;2023-10-08T12:38:10;97145.13;;;26.81;37.20
58367;BME280;57745;42.524;12.052;2023-10-08T12:40:36;97140.84;;;26.80;36.88
58367;BME280;57745;42.524;12.052;2023-10-08T12:43:13;97134.63;;;26.99;37.12
58367;BME280;57745;42.524;12.052;2023-10-08T12:45:45;97140.25;;;26.93;37.73
58367;BME280;57745;42.524;12.052;2023-10-08T12:48:10;97132.41;;;26.92;37.14
58367;BME280;57745;42.524;12.052;2023-10-08T12:50:39;97136.22;;;26.94;37.33
58367;BME280;57745;42.524;12.052;2023-10-08T12:53:09;97136.22;;;26.89;37.17
58367;BME280;57745;42.524;12.052;2023-10-08T12:55:37;97125.34;;;26.85;37.42
58367;BME280;57745;42.524;12.052;2023-10-08T12:58:05;97132.50;;;26.80;37.65
58367;BME280;57745;42.524;12.052;2023-10-08T13:00:38;97133.44;;;26.89;37.47
58367;BME280;57745;42.524;12.052;2023-10-08T13:03:06;97132.16;;;26.90;37.30
58367;BME280;57745;42.524;12.052;2023-10-08T13:05:43;97129.63;;;26.92;37.55
58367;BME280;57745;42.524;12.052;2023-10-08T13:08:12;97127.25;;;27.07;37.72
58367;BME280;57745;42.524;12.052;2023-10-08T13:10:41;97123.28;;;26.91;37.22
58367;BME280;57745;42.524;12.052;2023-10-08T13:13:10;97123.25;;;26.97;36.08
58367;BME280;57745;42.524;12.052;2023-10-08T13:15:37;97114.94;;;26.91;35.00
58367;BME280;57745;42.524;12.052;2023-10-08T13:18:02;97122.53;;;26.91;35.68
58367;BME280;57745;42.524;12.052;2023-10-08T13:20:29;97114.47;;;26.93;35.02